sensor_id;sensor_type;location;lat;lon;timestamp;pressure;altitude;pressure_sealevel;temperature;humidity
36828;BME280;22766;48.042;11.192;2022-12-29T00:01:58;94858.56;;;0.98;100.00
36828;BME280;22766;48.042;11.192;2022-12-29T00:04:25;94859.66;;;0.93;100.00
36828;BME280;22766;48.042;11.192;2022-12-29T00:06:52;94852.47;;;1.00;100.00
36828;BME280;22766;48.042;11.192;2022-12-29T00:09:19;94849.31;;;1.09;100.00
36828;BME280;22766;48.042;11.192;2022-12-29T00:11:46;94843.44;;;1.21;100.00
36828;BME280;22766;48.042;11.192;2022-12-29T00:14:13;94843.25;;;1.24;100.00
36828;BME280;22766;48.042;11.192;2022-12-29T00:16:58;94832.06;;;1.27;100.00
36828;BME280;22766;48.042;11.192;2022-12-29T00:19:25;94841.50;;;1.37;100.00
36828;BME280;22766;48.042;11.192;2022-12-29T00:22:12;94838.56;;;1.43;100.00
36828;BME280;22766;48.042;11.192;2022-12-29T00:24:58;94827.47;;;1.57;100.00
36828;BME280;22766;48.042;11.192;2022-12-29T00:27:28;94827.78;;;1.65;100.00
36828;BME280;22766;48.042;11.192;2022-12-29T00:30:19;94831.47;;;2.10;100.00
36828;BME280;22766;48.042;11.192;2022-12-29T00:35:58;94821.44;;;1.96;100.00
36828;BME280;22766;48.042;11.192;2022-12-29T00:38:29;94822.97;;;1.85;100.00
36828;BME280;22766;48.042;11.192;2022-12-29T00:41:16;94822.78;;;1.76;100.00
36828;BME280;22766;48.042;11.192;2022-12-29T00:44:01;94817.00;;;1.61;100.00
36828;BME280;22766;48.042;11.192;2022-12-29T00:46:37;94819.22;;;1.41;100.00
36828;BME280;22766;48.042;11.192;2022-12-29T00:49:06;94819.75;;;1.33;100.00
36828;BME280;22766;48.042;11.192;2022-12-29T00:51:51;94822.38;;;1.32;100.00
36828;BME280;22766;48.042;11.192;2022-12-29T00:54:18;94821.50;;;1.33;100.00
36828;BME280;22766;48.042;11.192;2022-12-29T00:56:49;94815.97;;;1.39;100.00
36828;BME280;22766;48.042;11.192;2022-12-29T00:59:17;94824.22;;;1.30;100.00
36828;BME280;22766;48.042;11.192;2022-12-29T01:01:45;94821.28;;;1.36;100.00
36828;BME280;22766;48.042;11.192;2022-12-29T01:04:13;94816.09;;;1.37;100.00
36828;BME280;22766;48.042;11.192;2022-12-29T01:06:40;94821.78;;;1.41;100.00
36828;BME280;22766;48.042;11.192;2022-12-29T01:09:15;94820.38;;;1.37;100.00
36828;BME280;22766;48.042;11.192;2022-12-29T01:12:00;94830.13;;;1.30;100.00
36828;BME280;22766;48.042;11.192;2022-12-29T01:14:27;94830.13;;;1.30;100.00
36828;BME280;22766;48.042;11.192;2022-12-29T01:16:54;94829.41;;;1.41;100.00
36828;BME280;22766;48.042;11.192;2022-12-29T01:19:22;94832.88;;;1.40;100.00
36828;BME280;22766;48.042;11.192;2022-12-29T01:21:49;94840.00;;;1.47;100.00
36828;BME280;22766;48.042;11.192;2022-12-29T01:24:18;94839.78;;;1.50;100.00
36828;BME280;22766;48.042;11.192;2022-12-29T01:26:46;94844.38;;;1.45;100.00
36828;BME280;22766;48.042;11.192;2022-12-29T01:29:13;94846.31;;;1.42;100.00
36828;BME280;22766;48.042;11.192;2022-12-29T01:31:39;94842.94;;;1.41;100.00
36828;BME280;22766;48.042;11.192;2022-12-29T01:34:07;94851.50;;;1.40;100.00
36828;BME280;22766;48.042;11.192;2022-12-29T01:36:34;94850.78;;;1.38;100.00
36828;BME280;22766;48.042;11.192;2022-12-29T01:39:01;94848.84;;;1.42;100.00
36828;BME280;22766;48.042;11.192;2022-12-29T01:41:28;94850.78;;;1.38;100.00
36828;BME280;22766;48.042;11.192;2022-12-29T01:43:57;94848.25;;;1.38;100.00
36828;BME280;22766;48.042;11.192;2022-12-29T01:51:27;94847.22;;;1.28;100.00
36828;BME280;22766;48.042;11.192;2022-12-29T01:53:58;94835.81;;;1.21;100.00
36828;BME280;22766;48.042;11.192;2022-12-29T01:56:27;94840.09;;;1.21;100.00
36828;BME280;22766;48.042;11.192;2022-12-29T01:59:02;94842.53;;;1.22;100.00
36828;BME280;22766;48.042;11.192;2022-12-29T02:01:32;94850.53;;;1.16;100.00
36828;BME280;22766;48.042;11.192;2022-12-29T02:04:00;94833.47;;;1.18;100.00
36828;BME280;22766;48.042;11.192;2022-12-29T02:06:31;94836.31;;;1.14;100.00
36828;BME280;22766;48.042;11.192;2022-12-29T02:09:00;94833.69;;;1.15;100.00
36828;BME280;22766;48.042;11.192;2022-12-29T02:11:28;94826.22;;;1.12;100.00
36828;BME280;22766;48.042;11.192;2022-12-29T02:13:56;94823.69;;;1.12;100.00
36828;BME280;22766;48.042;11.192;2022-12-29T02:22:02;94829.59;;;1.13;100.00
36828;BME280;22766;48.042;11.192;2022-12-29T02:40:25;94801.84;;;2.09;100.00
36828;BME280;22766;48.042;11.192;2022-12-29T02:51:34;94797.13;;;2.62;100.00
36828;BME280;22766;48.042;11.192;2022-12-29T02:54:03;94799.28;;;2.45;100.00
36828;BME280;22766;48.042;11.192;2022-12-29T02:56:49;94789.22;;;2.89;100.00
36828;BME280;22766;48.042;11.192;2022-12-29T02:59:16;94789.84;;;3.49;96.94
36828;BME280;22766;48.042;11.192;2022-12-29T03:02:20;94788.44;;;3.78;92.94
36828;BME280;22766;48.042;11.192;2022-12-29T03:05:13;94791.66;;;3.92;92.25
36828;BME280;22766;48.042;11.192;2022-12-29T03:07:50;94779.84;;;3.91;93.27
36828;BME280;22766;48.042;11.192;2022-12-29T03:16:35;94777.97;;;3.26;100.00
36828;BME280;22766;48.042;11.192;2022-12-29T03:19:07;94769.63;;;3.46;100.00
36828;BME280;22766;48.042;11.192;2022-12-29T03:21:43;94772.88;;;3.70;100.00
36828;BME280;22766;48.042;11.192;2022-12-29T03:24:43;94771.72;;;3.52;100.00
36828;BME280;22766;48.042;11.192;2022-12-29T03:27:16;94774.97;;;3.43;100.00
36828;BME280;22766;48.042;11.192;2022-12-29T03:29:48;94774.84;;;3.45;100.00
36828;BME280;22766;48.042;11.192;2022-12-29T03:32:26;94762.47;;;3.51;100.00
36828;BME280;22766;48.042;11.192;2022-12-29T03:34:56;94766.16;;;3.47;100.00
36828;BME280;22766;48.042;11.192;2022-12-29T03:37:28;94762.34;;;3.42;100.00
36828;BME280;22766;48.042;11.192;2022-12-29T03:39:58;94762.56;;;3.39;100.00
36828;BME280;22766;48.042;11.192;2022-12-29T03:42:28;94753.16;;;3.28;100.00
36828;BME280;22766;48.042;11.192;2022-12-29T03:44:57;94756.50;;;3.29;100.00
36828;BME280;22766;48.042;11.192;2022-12-29T03:47:24;94752.81;;;3.33;100.00
36828;BME280;22766;48.042;11.192;2022-12-29T03:49:52;94753.50;;;3.46;100.00
36828;BME280;22766;48.042;11.192;2022-12-29T03:52:18;94745.06;;;3.45;100.00
36828;BME280;22766;48.042;11.192;2022-12-29T03:54:46;94746.09;;;3.54;100.00
36828;BME280;22766;48.042;11.192;2022-12-29T03:57:13;94749.81;;;3.72;100.00
36828;BME280;22766;48.042;11.192;2022-12-29T03:59:53;94749.44;;;3.76;100.00
36828;BME280;22766;48.042;11.192;2022-12-29T04:02:20;94750.13;;;3.78;100.00
36828;BME280;22766;48.042;11.192;2022-12-29T04:04:47;94756.19;;;3.77;100.00
36828;BME280;22766;48.042;11.192;2022-12-29T04:07:14;94755.81;;;3.82;100.00
36828;BME280;22766;48.042;11.192;2022-12-29T04:09:41;94754.31;;;3.91;100.00
36828;BME280;22766;48.042;11.192;2022-12-29T04:12:11;94745.50;;;3.95;100.00
36828;BME280;22766;48.042;11.192;2022-12-29T04:14:38;94748.75;;;3.86;100.00
36828;BME280;22766;48.042;11.192;2022-12-29T04:17:05;94751.41;;;3.73;100.00
36828;BME280;22766;48.042;11.192;2022-12-29T04:19:32;94749.00;;;3.71;100.00
36828;BME280;22766;48.042;11.192;2022-12-29T04:22:00;94750.13;;;3.78;100.00
36828;BME280;22766;48.042;11.192;2022-12-29T04:24:27;94747.69;;;3.77;100.00
36828;BME280;22766;48.042;11.192;2022-12-29T04:26:53;94746.75;;;3.78;100.00
36828;BME280;22766;48.042;11.192;2022-12-29T04:29:29;94748.41;;;3.79;100.00
36828;BME280;22766;48.042;11.192;2022-12-29T04:32:14;94734.56;;;3.93;100.00
36828;BME280;22766;48.042;11.192;2022-12-29T04:34:46;94743.25;;;4.01;100.00
36828;BME280;22766;48.042;11.192;2022-12-29T04:37:13;94729.31;;;4.05;99.63
36828;BME280;22766;48.042;11.192;2022-12-29T04:39:40;94726.41;;;4.10;98.33
36828;BME280;22766;48.042;11.192;2022-12-29T04:42:07;94736.63;;;4.10;100.00
36828;BME280;22766;48.042;11.192;2022-12-29T04:44:34;94739.41;;;4.07;100.00
36828;BME280;22766;48.042;11.192;2022-12-29T04:47:31;94731.56;;;3.99;100.00
36828;BME280;22766;48.042;11.192;2022-12-29T04:50:16;94725.38;;;4.01;100.00
36828;BME280;22766;48.042;11.192;2022-12-29T04:52:51;94726.19;;;4.02;100.00
36828;BME280;22766;48.042;11.192;2022-12-29T04:55:18;94729.31;;;4.05;100.00
36828;BME280;22766;48.042;11.192;2022-12-29T04:57:45;94734.19;;;3.97;100.00
36828;BME280;22766;48.042;11.192;2022-12-29T05:00:16;94725.06;;;3.95;100.00
36828;BME280;22766;48.042;11.192;2022-12-29T05:02:44;94731.19;;;3.92;100.00
36828;BME280;22766;48.042;11.192;2022-12-29T05:05:11;94737.00;;;3.94;100.00
36828;BME280;22766;48.042;11.192;2022-12-29T05:07:41;94731.66;;;3.97;100.00
36828;BME280;22766;48.042;11.192;2022-12-29T05:10:08;94742.09;;;4.05;97.33
36828;BME280;22766;48.042;11.192;2022-12-29T05:12:37;94755.88;;;4.25;93.03
36828;BME280;22766;48.042;11.192;2022-12-29T05:15:05;94759.50;;;4.43;88.52
36828;BME280;22766;48.042;11.192;2022-12-29T05:17:33;94764.97;;;4.49;90.92
36828;BME280;22766;48.042;11.192;2022-12-29T05:20:00;94758.13;;;4.39;96.85
36828;BME280;22766;48.042;11.192;2022-12-29T05:22:27;94762.50;;;4.27;99.33
36828;BME280;22766;48.042;11.192;2022-12-29T05:24:55;94765.41;;;4.23;96.04
36828;BME280;22766;48.042;11.192;2022-12-29T05:27:22;94759.13;;;4.27;95.18
36828;BME280;22766;48.042;11.192;2022-12-29T05:30:18;94759.34;;;4.35;93.96
36828;BME280;22766;48.042;11.192;2022-12-29T05:32:45;94756.66;;;4.36;92.41
36828;BME280;22766;48.042;11.192;2022-12-29T05:35:11;94754.44;;;4.32;93.14
36828;BME280;22766;48.042;11.192;2022-12-29T05:37:38;94753.53;;;4.33;94.34
36828;BME280;22766;48.042;11.192;2022-12-29T05:40:05;94752.84;;;4.31;96.07
36828;BME280;22766;48.042;11.192;2022-12-29T05:42:33;94739.97;;;4.21;98.74
36828;BME280;22766;48.042;11.192;2022-12-29T05:45:31;94744.72;;;4.15;100.00
36828;BME280;22766;48.042;11.192;2022-12-29T05:48:25;94740.34;;;4.06;100.00
36828;BME280;22766;48.042;11.192;2022-12-29T05:51:10;94745.44;;;4.17;94.86
36828;BME280;22766;48.042;11.192;2022-12-29T05:53:45;94748.34;;;4.55;85.79
36828;BME280;22766;48.042;11.192;2022-12-29T05:56:12;94742.31;;;4.77;81.65
36828;BME280;22766;48.042;11.192;2022-12-29T05:58:39;94749.31;;;4.74;82.45
36828;BME280;22766;48.042;11.192;2022-12-29T06:01:06;94740.00;;;4.73;81.26
36828;BME280;22766;48.042;11.192;2022-12-29T06:03:33;94737.63;;;4.82;79.20
36828;BME280;22766;48.042;11.192;2022-12-29T06:06:00;94733.00;;;4.75;85.36
36828;BME280;22766;48.042;11.192;2022-12-29T06:08:27;94732.50;;;4.61;88.73
36828;BME280;22766;48.042;11.192;2022-12-29T06:10:54;94738.09;;;4.55;86.34
36828;BME280;22766;48.042;11.192;2022-12-29T06:13:20;94735.53;;;4.55;85.73
36828;BME280;22766;48.042;11.192;2022-12-29T06:15:49;94729.50;;;4.56;83.48
36828;BME280;22766;48.042;11.192;2022-12-29T06:18:17;94728.22;;;4.61;80.55
36828;BME280;22766;48.042;11.192;2022-12-29T06:20:46;94739.38;;;4.81;75.68
36828;BME280;22766;48.042;11.192;2022-12-29T06:23:14;94744.63;;;4.80;81.28
36828;BME280;22766;48.042;11.192;2022-12-29T06:25:42;94750.88;;;4.55;92.29
36828;BME280;22766;48.042;11.192;2022-12-29T06:28:09;94751.28;;;4.39;95.59
36828;BME280;22766;48.042;11.192;2022-12-29T06:30:37;94751.06;;;4.31;96.50
36828;BME280;22766;48.042;11.192;2022-12-29T06:33:04;94755.19;;;4.23;98.01
36828;BME280;22766;48.042;11.192;2022-12-29T06:35:31;94752.66;;;4.12;100.00
36828;BME280;22766;48.042;11.192;2022-12-29T06:37:58;94747.06;;;4.07;100.00
36828;BME280;22766;48.042;11.192;2022-12-29T06:40:25;94755.44;;;3.98;100.00
36828;BME280;22766;48.042;11.192;2022-12-29T06:43:08;94766.13;;;3.92;100.00
36828;BME280;22766;48.042;11.192;2022-12-29T06:45:42;94767.53;;;3.96;100.00
36828;BME280;22766;48.042;11.192;2022-12-29T06:48:09;94761.38;;;3.98;100.00
36828;BME280;22766;48.042;11.192;2022-12-29T06:50:36;94768.47;;;3.95;100.00
36828;BME280;22766;48.042;11.192;2022-12-29T06:53:03;94771.25;;;3.92;100.00
36828;BME280;22766;48.042;11.192;2022-12-29T06:55:29;94771.25;;;3.80;100.00
36828;BME280;22766;48.042;11.192;2022-12-29T06:57:56;94770.22;;;3.72;100.00
36828;BME280;22766;48.042;11.192;2022-12-29T07:00:24;94777.63;;;3.86;100.00
36828;BME280;22766;48.042;11.192;2022-12-29T07:02:51;94764.66;;;3.67;100.00
36828;BME280;22766;48.042;11.192;2022-12-29T07:05:18;94766.16;;;3.58;100.00
36828;BME280;22766;48.042;11.192;2022-12-29T07:07:45;94768.22;;;3.53;100.00
36828;BME280;22766;48.042;11.192;2022-12-29T07:10:11;94781.47;;;3.58;100.00
36828;BME280;22766;48.042;11.192;2022-12-29T07:12:38;94778.81;;;3.60;100.00
36828;BME280;22766;48.042;11.192;2022-12-29T07:15:05;94786.22;;;3.52;100.00
36828;BME280;22766;48.042;11.192;2022-12-29T07:17:32;94784.63;;;3.62;100.00
36828;BME280;22766;48.042;11.192;2022-12-29T07:19:59;94792.63;;;3.79;98.54
36828;BME280;22766;48.042;11.192;2022-12-29T07:22:25;94794.13;;;3.82;96.41
36828;BME280;22766;48.042;11.192;2022-12-29T07:24:52;94793.91;;;3.74;96.23
36828;BME280;22766;48.042;11.192;2022-12-29T07:27:19;94805.72;;;3.75;97.26
36828;BME280;22766;48.042;11.192;2022-12-29T07:29:45;94799.13;;;3.95;90.02
36828;BME280;22766;48.042;11.192;2022-12-29T07:32:12;94797.97;;;4.41;79.87
36828;BME280;22766;48.042;11.192;2022-12-29T07:34:38;94809.06;;;4.62;78.44
36828;BME280;22766;48.042;11.192;2022-12-29T07:37:06;94803.06;;;4.52;79.95
36828;BME280;22766;48.042;11.192;2022-12-29T07:39:33;94801.44;;;4.51;76.48
36828;BME280;22766;48.042;11.192;2022-12-29T07:41:59;94803.84;;;4.64;75.37
36828;BME280;22766;48.042;11.192;2022-12-29T07:44:37;94801.41;;;4.94;71.99
36828;BME280;22766;48.042;11.192;2022-12-29T07:47:15;94811.88;;;4.91;75.62
36828;BME280;22766;48.042;11.192;2022-12-29T07:49:42;94806.59;;;4.72;83.77
36828;BME280;22766;48.042;11.192;2022-12-29T07:52:08;94806.19;;;4.56;88.03
36828;BME280;22766;48.042;11.192;2022-12-29T07:54:35;94803.63;;;4.67;82.62
36828;BME280;22766;48.042;11.192;2022-12-29T07:57:02;94802.97;;;5.06;74.78
36828;BME280;22766;48.042;11.192;2022-12-29T07:59:28;94811.13;;;5.32;75.26
36828;BME280;22766;48.042;11.192;2022-12-29T08:01:55;94796.28;;;5.56;72.50
36828;BME280;22766;48.042;11.192;2022-12-29T08:04:22;94805.63;;;5.87;69.98
36828;BME280;22766;48.042;11.192;2022-12-29T08:06:49;94797.09;;;6.17;68.05
36828;BME280;22766;48.042;11.192;2022-12-29T08:09:16;94794.47;;;6.47;63.56
36828;BME280;22766;48.042;11.192;2022-12-29T08:11:48;94804.66;;;6.87;59.31
36828;BME280;22766;48.042;11.192;2022-12-29T08:14:15;94803.81;;;6.96;57.08
36828;BME280;22766;48.042;11.192;2022-12-29T08:16:41;94799.81;;;7.03;58.34
36828;BME280;22766;48.042;11.192;2022-12-29T08:19:10;94808.97;;;6.96;60.90
36828;BME280;22766;48.042;11.192;2022-12-29T08:21:38;94800.72;;;6.92;61.86
36828;BME280;22766;48.042;11.192;2022-12-29T08:24:05;94806.81;;;7.10;59.07
36828;BME280;22766;48.042;11.192;2022-12-29T08:26:32;94796.78;;;7.36;56.19
36828;BME280;22766;48.042;11.192;2022-12-29T08:28:59;94800.50;;;7.61;54.28
36828;BME280;22766;48.042;11.192;2022-12-29T08:31:25;94801.44;;;7.79;54.90
36828;BME280;22766;48.042;11.192;2022-12-29T08:33:52;94815.84;;;7.89;57.86
36828;BME280;22766;48.042;11.192;2022-12-29T08:36:19;94811.75;;;7.96;60.67
36828;BME280;22766;48.042;11.192;2022-12-29T08:38:45;94808.25;;;7.97;61.33
36828;BME280;22766;48.042;11.192;2022-12-29T08:41:12;94819.28;;;8.07;56.79
36828;BME280;22766;48.042;11.192;2022-12-29T08:43:39;94822.66;;;8.17;54.58
36828;BME280;22766;48.042;11.192;2022-12-29T08:46:05;94821.56;;;8.20;52.08
36828;BME280;22766;48.042;11.192;2022-12-29T08:48:32;94818.81;;;8.31;51.48
36828;BME280;22766;48.042;11.192;2022-12-29T08:50:58;94825.06;;;8.19;50.84
36828;BME280;22766;48.042;11.192;2022-12-29T08:53:25;94818.69;;;7.96;52.20
36828;BME280;22766;48.042;11.192;2022-12-29T08:55:57;94820.13;;;7.62;62.17
36828;BME280;22766;48.042;11.192;2022-12-29T08:58:34;94815.28;;;7.49;71.88
36828;BME280;22766;48.042;11.192;2022-12-29T09:01:01;94833.41;;;7.19;76.09
36828;BME280;22766;48.042;11.192;2022-12-29T09:03:27;94825.97;;;6.78;81.66
36828;BME280;22766;48.042;11.192;2022-12-29T09:06:16;94828.44;;;7.17;74.14
36828;BME280;22766;48.042;11.192;2022-12-29T09:08:43;94824.31;;;7.63;66.03
36828;BME280;22766;48.042;11.192;2022-12-29T09:11:16;94838.88;;;7.81;62.91
36828;BME280;22766;48.042;11.192;2022-12-29T09:13:42;94835.88;;;7.95;56.32
36828;BME280;22766;48.042;11.192;2022-12-29T09:16:09;94847.00;;;8.13;54.89
36828;BME280;22766;48.042;11.192;2022-12-29T09:18:37;94839.25;;;8.32;52.40
36828;BME280;22766;48.042;11.192;2022-12-29T09:21:05;94838.53;;;8.40;52.87
36828;BME280;22766;48.042;11.192;2022-12-29T09:23:32;94846.25;;;8.40;52.37
36828;BME280;22766;48.042;11.192;2022-12-29T09:26:00;94840.69;;;8.44;54.07
36828;BME280;22766;48.042;11.192;2022-12-29T09:28:26;94842.66;;;8.33;55.73
36828;BME280;22766;48.042;11.192;2022-12-29T09:30:55;94843.72;;;8.30;54.88
36828;BME280;22766;48.042;11.192;2022-12-29T09:33:22;94838.38;;;8.14;52.41
36828;BME280;22766;48.042;11.192;2022-12-29T09:35:57;94840.94;;;8.14;54.30
36828;BME280;22766;48.042;11.192;2022-12-29T09:38:25;94844.75;;;8.10;53.01
36828;BME280;22766;48.042;11.192;2022-12-29T09:41:01;94835.00;;;8.04;52.24
36828;BME280;22766;48.042;11.192;2022-12-29T09:44:20;94832.22;;;7.98;51.54
36828;BME280;22766;48.042;11.192;2022-12-29T09:46:47;94828.50;;;8.10;51.59
36828;BME280;22766;48.042;11.192;2022-12-29T09:49:35;94823.75;;;8.15;50.16
36828;BME280;22766;48.042;11.192;2022-12-29T09:52:13;94823.03;;;8.32;48.82
36828;BME280;22766;48.042;11.192;2022-12-29T09:54:56;94825.06;;;8.28;49.32
36828;BME280;22766;48.042;11.192;2022-12-29T09:57:39;94806.88;;;8.39;46.90
36828;BME280;22766;48.042;11.192;2022-12-29T10:00:23;94819.91;;;8.56;46.25
36828;BME280;22766;48.042;11.192;2022-12-29T10:03:02;94825.44;;;8.61;46.21
36828;BME280;22766;48.042;11.192;2022-12-29T10:05:53;94827.06;;;8.62;45.43
36828;BME280;22766;48.042;11.192;2022-12-29T10:14:15;94836.66;;;8.87;44.96
36828;BME280;22766;48.042;11.192;2022-12-29T10:19:43;94832.63;;;9.02;45.04
36828;BME280;22766;48.042;11.192;2022-12-29T10:24:56;94809.16;;;9.22;44.17
36828;BME280;22766;48.042;11.192;2022-12-29T10:27:23;94812.66;;;9.39;43.30
36828;BME280;22766;48.042;11.192;2022-12-29T10:29:54;94807.75;;;9.54;43.34
36828;BME280;22766;48.042;11.192;2022-12-29T10:32:46;94804.16;;;9.64;43.13
36828;BME280;22766;48.042;11.192;2022-12-29T10:35:23;94803.03;;;9.67;42.38
36828;BME280;22766;48.042;11.192;2022-12-29T10:42:53;94783.56;;;10.23;41.78
36828;BME280;22766;48.042;11.192;2022-12-29T10:45:23;94781.88;;;10.48;40.48
36828;BME280;22766;48.042;11.192;2022-12-29T10:48:03;94771.63;;;10.88;41.88
36828;BME280;22766;48.042;11.192;2022-12-29T10:50:30;94758.72;;;11.45;40.12
36828;BME280;22766;48.042;11.192;2022-12-29T10:53:01;94758.34;;;11.96;38.18
36828;BME280;22766;48.042;11.192;2022-12-29T10:55:32;94762.50;;;12.05;38.41
36828;BME280;22766;48.042;11.192;2022-12-29T10:58:03;94759.91;;;12.05;37.96
36828;BME280;22766;48.042;11.192;2022-12-29T11:00:32;94762.41;;;11.90;37.90
36828;BME280;22766;48.042;11.192;2022-12-29T11:05:52;94752.69;;;12.92;36.86
36828;BME280;22766;48.042;11.192;2022-12-29T11:08:25;94750.38;;;12.97;35.46
36828;BME280;22766;48.042;11.192;2022-12-29T11:13:29;94751.81;;;12.47;36.18
36828;BME280;22766;48.042;11.192;2022-12-29T11:16:04;94751.22;;;12.67;36.62
36828;BME280;22766;48.042;11.192;2022-12-29T11:18:36;94742.19;;;12.33;35.48
36828;BME280;22766;48.042;11.192;2022-12-29T11:21:06;94745.22;;;11.97;36.92
36828;BME280;22766;48.042;11.192;2022-12-29T11:23:39;94733.81;;;11.60;36.99
36828;BME280;22766;48.042;11.192;2022-12-29T11:28:44;94741.47;;;11.05;38.06
36828;BME280;22766;48.042;11.192;2022-12-29T11:31:16;94736.28;;;11.37;37.00
36828;BME280;22766;48.042;11.192;2022-12-29T11:33:42;94733.88;;;12.06;35.84
36828;BME280;22766;48.042;11.192;2022-12-29T11:36:36;94736.13;;;12.48;36.02
36828;BME280;22766;48.042;11.192;2022-12-29T11:39:04;94731.28;;;12.76;34.74
36828;BME280;22766;48.042;11.192;2022-12-29T11:41:39;94732.72;;;13.61;33.85
36828;BME280;22766;48.042;11.192;2022-12-29T11:44:05;94730.50;;;14.16;33.51
36828;BME280;22766;48.042;11.192;2022-12-29T11:46:34;94732.00;;;14.54;32.16
36828;BME280;22766;48.042;11.192;2022-12-29T11:49:03;94727.84;;;14.74;31.86
36828;BME280;22766;48.042;11.192;2022-12-29T11:54:02;94721.47;;;15.40;30.85
36828;BME280;22766;48.042;11.192;2022-12-29T11:56:39;94723.78;;;15.77;30.33
36828;BME280;22766;48.042;11.192;2022-12-29T12:02:15;94714.09;;;14.80;31.63
36828;BME280;22766;48.042;11.192;2022-12-29T12:04:45;94721.38;;;14.85;31.90
36828;BME280;22766;48.042;11.192;2022-12-29T12:10:03;94709.50;;;14.61;32.94
36828;BME280;22766;48.042;11.192;2022-12-29T12:15:05;94704.03;;;15.13;32.75
36828;BME280;22766;48.042;11.192;2022-12-29T12:25:38;94711.78;;;16.17;30.65
36828;BME280;22766;48.042;11.192;2022-12-29T12:28:24;94709.22;;;15.55;31.80
36828;BME280;22766;48.042;11.192;2022-12-29T12:31:01;94698.84;;;15.41;32.11
36828;BME280;22766;48.042;11.192;2022-12-29T12:33:36;94694.63;;;14.70;32.76
36828;BME280;22766;48.042;11.192;2022-12-29T12:38:58;94696.22;;;13.48;35.31
36828;BME280;22766;48.042;11.192;2022-12-29T12:44:10;94690.38;;;13.31;36.35
36828;BME280;22766;48.042;11.192;2022-12-29T12:58:33;94682.47;;;12.03;40.44
36828;BME280;22766;48.042;11.192;2022-12-29T13:01:14;94673.34;;;11.85;41.47
36828;BME280;22766;48.042;11.192;2022-12-29T13:04:08;94684.63;;;11.84;41.56
36828;BME280;22766;48.042;11.192;2022-12-29T13:06:50;94683.03;;;11.83;42.48
36828;BME280;22766;48.042;11.192;2022-12-29T13:17:46;94673.38;;;11.61;44.01
36828;BME280;22766;48.042;11.192;2022-12-29T13:20:39;94675.53;;;11.41;45.07
36828;BME280;22766;48.042;11.192;2022-12-29T13:28:59;94665.19;;;11.49;46.25
36828;BME280;22766;48.042;11.192;2022-12-29T13:31:40;94663.38;;;11.58;47.94
36828;BME280;22766;48.042;11.192;2022-12-29T13:36:46;94663.00;;;11.85;50.16
36828;BME280;22766;48.042;11.192;2022-12-29T13:39:19;94667.69;;;12.12;49.57
36828;BME280;22766;48.042;11.192;2022-12-29T13:41:53;94653.75;;;12.21;49.76
36828;BME280;22766;48.042;11.192;2022-12-29T13:44:25;94659.25;;;12.18;49.95
36828;BME280;22766;48.042;11.192;2022-12-29T13:47:11;94657.31;;;12.20;49.74
36828;BME280;22766;48.042;11.192;2022-12-29T13:49:42;94656.63;;;12.26;48.92
36828;BME280;22766;48.042;11.192;2022-12-29T13:53:05;94657.44;;;12.27;49.43
36828;BME280;22766;48.042;11.192;2022-12-29T13:55:27;94667.66;;;12.20;49.85
36828;BME280;22766;48.042;11.192;2022-12-29T13:58:03;94663.34;;;12.12;49.74
36828;BME280;22766;48.042;11.192;2022-12-29T14:06:25;94652.97;;;11.82;51.13
36828;BME280;22766;48.042;11.192;2022-12-29T14:08:55;94666.09;;;11.64;51.81
36828;BME280;22766;48.042;11.192;2022-12-29T14:11:30;94670.66;;;11.54;52.44
36828;BME280;22766;48.042;11.192;2022-12-29T14:13:57;94677.91;;;11.59;52.75
36828;BME280;22766;48.042;11.192;2022-12-29T14:16:33;94681.75;;;11.87;50.96
36828;BME280;22766;48.042;11.192;2022-12-29T14:19:13;94678.19;;;11.80;51.65
36828;BME280;22766;48.042;11.192;2022-12-29T14:21:44;94674.03;;;11.71;51.93
36828;BME280;22766;48.042;11.192;2022-12-29T14:29:49;94670.69;;;11.38;52.94
36828;BME280;22766;48.042;11.192;2022-12-29T14:34:59;94678.31;;;11.23;53.63
36828;BME280;22766;48.042;11.192;2022-12-29T14:37:33;94677.66;;;11.38;53.00
36828;BME280;22766;48.042;11.192;2022-12-29T14:40:25;94684.47;;;11.14;54.53
36828;BME280;22766;48.042;11.192;2022-12-29T14:42:54;94683.66;;;11.14;54.47
36828;BME280;22766;48.042;11.192;2022-12-29T14:45:28;94696.56;;;11.30;53.24
36828;BME280;22766;48.042;11.192;2022-12-29T14:47:56;94690.09;;;11.26;53.50
36828;BME280;22766;48.042;11.192;2022-12-29T14:50:43;94689.44;;;11.32;52.20
36828;BME280;22766;48.042;11.192;2022-12-29T14:53:46;94691.06;;;11.17;52.85
36828;BME280;22766;48.042;11.192;2022-12-29T14:56:16;94685.25;;;10.67;54.76
36828;BME280;22766;48.042;11.192;2022-12-29T15:01:43;94692.53;;;10.79;54.78
36828;BME280;22766;48.042;11.192;2022-12-29T15:04:17;94693.66;;;11.09;53.29
36828;BME280;22766;48.042;11.192;2022-12-29T15:06:45;94695.44;;;10.92;54.65
36828;BME280;22766;48.042;11.192;2022-12-29T15:11:48;94690.44;;;10.75;55.76
36828;BME280;22766;48.042;11.192;2022-12-29T15:16:54;94697.19;;;10.68;56.78
36828;BME280;22766;48.042;11.192;2022-12-29T15:19:22;94689.44;;;10.52;58.43
36828;BME280;22766;48.042;11.192;2022-12-29T15:21:49;94700.75;;;10.67;58.29
36828;BME280;22766;48.042;11.192;2022-12-29T15:24:16;94698.19;;;10.75;58.58
36828;BME280;22766;48.042;11.192;2022-12-29T15:26:46;94689.00;;;10.88;57.96
36828;BME280;22766;48.042;11.192;2022-12-29T15:34:46;94694.16;;;10.88;60.59
36828;BME280;22766;48.042;11.192;2022-12-29T15:37:27;94697.66;;;10.55;63.23
36828;BME280;22766;48.042;11.192;2022-12-29T15:39:55;94688.94;;;10.40;64.38
36828;BME280;22766;48.042;11.192;2022-12-29T15:42:30;94691.31;;;10.25;66.64
36828;BME280;22766;48.042;11.192;2022-12-29T15:45:04;94693.75;;;10.27;67.76
36828;BME280;22766;48.042;11.192;2022-12-29T15:47:38;94681.84;;;10.58;65.86